Time;durP1;ratioP1;P1;durP2;ratioP2;P2;SDS_P1;SDS_P2;PMS_P1;PMS_P2;Temp;Humidity;BMP_temperature;BMP_pressure;BME280_temperature;BME280_humidity;BME280_pressure;Samples;Min_cycle;Max_cycle;Signal;HPM_P1;HPM_P2
2022/12/08 00:01:47;;;;;;;16.37;11.80;;;4.40;99.90;;;;;;5074846;28;20329;-79
2022/12/08 00:04:12;;;;;;;12.57;10.07;;;4.40;99.90;;;;;;5075078;28;20167;-77
2022/12/08 00:09:37;;;;;;;15.27;11.37;;;4.40;99.90;;;;;;5074409;28;20159;-78
2022/12/08 00:12:11;;;;;;;16.13;11.47;;;4.40;99.90;;;;;;5056403;28;20240;-78
2022/12/08 00:14:42;;;;;;;17.80;11.57;;;4.40;99.90;;;;;;5056321;28;20197;-78
2022/12/08 00:17:09;;;;;;;17.00;11.53;;;4.40;99.90;;;;;;5056523;28;20670;-78
2022/12/08 00:19:37;;;;;;;20.40;12.63;;;4.30;99.90;;;;;;5074632;28;20233;-78
2022/12/08 00:22:05;;;;;;;18.80;13.00;;;4.40;99.90;;;;;;5074846;28;20194;-78
2022/12/08 00:24:38;;;;;;;20.43;12.87;;;4.30;99.90;;;;;;5074892;28;20175;-78
2022/12/08 00:27:04;;;;;;;15.20;11.33;;;4.30;99.90;;;;;;5056486;28;20573;-78
2022/12/08 00:29:29;;;;;;;15.57;11.77;;;4.30;99.90;;;;;;5074254;28;20179;-78
2022/12/08 00:31:55;;;;;;;19.10;13.23;;;4.30;99.90;;;;;;5056064;28;20270;-78
2022/12/08 00:34:21;;;;;;;18.73;12.30;;;4.30;99.90;;;;;;5072853;28;20203;-77
2022/12/08 00:36:46;;;;;;;18.43;12.80;;;4.30;99.90;;;;;;5020245;28;1027520;-78
2022/12/08 00:39:13;;;;;;;20.13;12.70;;;4.20;99.90;;;;;;5073692;28;20312;-78
2022/12/08 00:44:23;;;;;;;15.50;12.33;;;4.20;99.90;;;;;;5075243;28;20273;-78
2022/12/08 00:46:48;;;;;;;17.37;12.23;;;4.20;99.90;;;;;;5074769;28;20678;-78
2022/12/08 00:49:15;;;;;;;18.13;12.57;;;4.20;99.90;;;;;;5074964;28;20255;-78
2022/12/08 00:51:41;;;;;;;17.13;12.97;;;4.20;99.90;;;;;;5074471;28;20179;-78
2022/12/08 00:54:07;;;;;;;17.97;11.87;;;4.20;99.90;;;;;;5074427;28;20192;-78
2022/12/08 00:56:33;;;;;;;20.63;13.17;;;4.20;99.90;;;;;;5056532;28;20593;-77
2022/12/08 00:58:59;;;;;;;17.50;12.47;;;4.10;99.90;;;;;;5056241;28;20224;-78
2022/12/08 01:01:25;;;;;;;17.47;12.63;;;4.10;99.90;;;;;;5074310;28;20171;-78
2022/12/08 01:03:50;;;;;;;17.10;12.87;;;4.10;99.90;;;;;;5074210;28;20181;-77
2022/12/08 01:06:16;;;;;;;18.07;12.87;;;4.10;99.90;;;;;;5074508;28;20167;-78
2022/12/08 01:08:42;;;;;;;15.43;11.93;;;4.10;99.90;;;;;;5074158;28;20183;-78
2022/12/08 01:11:11;;;;;;;18.00;13.10;;;4.10;99.90;;;;;;5073045;28;20194;-77
2022/12/08 01:13:37;;;;;;;20.30;12.53;;;4.10;99.90;;;;;;5056814;28;20199;-78
2022/12/08 01:16:02;;;;;;;17.07;12.77;;;4.10;99.90;;;;;;5074232;28;20195;-78
2022/12/08 01:18:29;;;;;;;17.47;13.20;;;4.10;99.90;;;;;;5074283;28;20563;-78
2022/12/08 01:21:00;;;;;;;22.50;13.93;;;4.00;99.90;;;;;;5074134;28;20178;-78
2022/12/08 01:23:26;;;;;;;16.57;13.47;;;4.00;99.90;;;;;;5074171;28;20161;-78
2022/12/08 01:25:52;;;;;;;15.30;12.70;;;4.00;99.90;;;;;;5074547;28;20181;-78
2022/12/08 01:28:17;;;;;;;17.17;12.97;;;4.00;99.90;;;;;;5074252;28;20194;-78
2022/12/08 01:30:43;;;;;;;19.73;13.60;;;4.00;99.90;;;;;;5072839;28;20179;-78
2022/12/08 01:33:08;;;;;;;19.83;13.73;;;4.00;99.90;;;;;;5072783;28;20177;-78
2022/12/08 01:35:34;;;;;;;17.53;12.37;;;4.10;99.90;;;;;;5074294;28;20259;-78
2022/12/08 01:37:59;;;;;;;19.30;13.73;;;4.10;99.90;;;;;;5074095;28;20268;-78
2022/12/08 01:40:25;;;;;;;18.27;13.73;;;4.10;99.90;;;;;;5076101;28;20612;-77
2022/12/08 01:42:51;;;;;;;20.00;13.50;;;4.10;99.90;;;;;;5081329;28;20194;-78
2022/12/08 01:45:30;;;;;;;25.23;14.70;;;4.10;99.90;;;;;;5085413;28;20178;-78
2022/12/08 01:48:07;;;;;;;18.80;14.03;;;4.10;99.90;;;;;;5084876;28;20572;-78
2022/12/08 01:50:34;;;;;;;21.57;14.80;;;4.10;99.90;;;;;;5070329;28;20633;-78
2022/12/08 01:53:13;;;;;;;19.03;14.63;;;4.10;99.90;;;;;;5094168;28;20641;-78
2022/12/08 01:56:05;;;;;;;24.33;15.70;;;4.10;99.90;;;;;;5094007;28;20194;-78
2022/12/08 01:58:36;;;;;;;19.17;14.53;;;4.10;99.90;;;;;;5064719;28;20206;-78
2022/12/08 02:01:02;;;;;;;20.93;14.60;;;4.10;99.90;;;;;;5087204;28;20182;-78
2022/12/08 02:03:40;;;;;;;20.67;14.97;;;4.10;99.90;;;;;;5079378;28;20190;-77
2022/12/08 02:06:06;;;;;;;19.80;14.07;;;4.10;99.90;;;;;;5081281;28;20198;-78
2022/12/08 02:08:32;;;;;;;22.17;16.00;;;4.10;99.90;;;;;;5084702;28;20206;-78
2022/12/08 02:10:57;;;;;;;25.43;17.87;;;4.20;99.90;;;;;;5082795;28;20597;-78
2022/12/08 02:13:24;;;;;;;24.80;18.00;;;4.20;99.90;;;;;;5066796;28;20261;-78
2022/12/08 02:16:02;;;;;;;28.27;18.23;;;4.10;99.90;;;;;;5082304;28;20680;-78
2022/12/08 02:18:48;;;;;;;25.77;17.20;;;4.20;99.90;;;;;;5083340;28;20673;-78
2022/12/08 02:21:32;;;;;;;31.60;19.93;;;4.20;99.90;;;;;;5065595;28;20177;-78
2022/12/08 02:24:27;;;;;;;27.77;19.67;;;4.20;99.90;;;;;;5083583;28;20221;-78
2022/12/08 02:27:26;;;;;;;29.93;19.97;;;4.20;99.90;;;;;;5091209;28;20556;-78
2022/12/08 02:30:06;;;;;;;28.53;20.50;;;4.20;99.90;;;;;;5082443;28;20232;-78
2022/12/08 02:32:55;;;;;;;33.53;20.37;;;4.20;99.90;;;;;;5077176;28;20246;-78
2022/12/08 02:35:48;;;;;;;30.07;20.57;;;4.20;99.90;;;;;;5059029;28;20202;-77
2022/12/08 02:38:20;;;;;;;30.67;19.73;;;4.30;99.90;;;;;;5077017;28;20202;-78
2022/12/08 02:41:01;;;;;;;31.03;21.23;;;4.30;99.90;;;;;;5059266;28;20250;-78
2022/12/08 02:43:37;;;;;;;33.30;19.77;;;4.30;99.90;;;;;;5077221;28;20155;-79
2022/12/08 02:46:08;;;;;;;33.50;18.83;;;4.30;99.90;;;;;;5076897;28;20220;-78
2022/12/08 02:48:33;;;;;;;31.70;20.10;;;4.30;99.90;;;;;;5076718;28;20214;-78
2022/12/08 02:50:59;;;;;;;29.63;20.33;;;4.30;99.90;;;;;;5077490;28;20183;-78
2022/12/08 02:53:28;;;;;;;33.20;20.83;;;4.30;99.90;;;;;;5076907;28;20190;-78
2022/12/08 02:56:11;;;;;;;28.67;19.63;;;4.40;99.90;;;;;;5077221;28;20205;-78
2022/12/08 02:59:10;;;;;;;28.03;18.43;;;4.30;99.90;;;;;;5058811;28;20217;-78
2022/12/08 03:02:16;;;;;;;30.70;18.47;;;4.30;99.90;;;;;;5076682;28;20171;-78
2022/12/08 03:04:45;;;;;;;27.70;18.83;;;4.30;99.90;;;;;;5059022;28;20265;-77
2022/12/08 03:07:20;;;;;;;29.83;18.77;;;4.40;99.90;;;;;;5081604;28;20420;-78
2022/12/08 03:10:11;;;;;;;28.53;19.60;;;4.30;99.90;;;;;;5088380;28;20550;-79
2022/12/08 03:12:48;;;;;;;29.27;19.07;;;4.40;99.90;;;;;;5078863;28;20182;-78
2022/12/08 03:15:17;;;;;;;28.97;19.23;;;4.40;99.90;;;;;;5072638;28;20194;-78
2022/12/08 03:17:50;;;;;;;30.87;19.37;;;4.40;99.90;;;;;;5058081;28;20691;-78
2022/12/08 03:20:20;;;;;;;28.33;17.60;;;4.40;99.90;;;;;;5076423;28;20178;-78
2022/12/08 03:22:47;;;;;;;28.80;17.53;;;4.40;99.90;;;;;;5079939;28;20192;-78
2022/12/08 03:25:18;;;;;;;28.17;17.97;;;4.40;99.90;;;;;;5066188;28;20175;-77
2022/12/08 03:27:43;;;;;;;24.27;15.70;;;4.40;99.90;;;;;;5079223;28;20903;-78
2022/12/08 03:30:09;;;;;;;22.60;15.50;;;4.40;99.90;;;;;;5073932;28;20202;-78
2022/12/08 03:33:03;;;;;;;22.23;14.90;;;4.40;99.90;;;;;;5056973;28;20658;-79
2022/12/08 03:35:32;;;;;;;24.20;14.93;;;4.40;99.90;;;;;;5066284;28;20705;-79
2022/12/08 03:38:06;;;;;;;19.87;13.87;;;4.40;99.90;;;;;;5057537;28;20219;-78
2022/12/08 03:40:32;;;;;;;20.60;14.43;;;4.40;99.90;;;;;;5058220;28;20173;-78
2022/12/08 03:42:58;;;;;;;25.87;14.53;;;4.40;99.90;;;;;;5076198;28;20253;-78
2022/12/08 03:45:23;;;;;;;24.70;14.77;;;4.40;99.90;;;;;;5058038;28;20186;-78
2022/12/08 03:47:49;;;;;;;23.47;15.73;;;4.40;99.90;;;;;;5076134;28;20194;-78
2022/12/08 03:50:15;;;;;;;22.27;15.60;;;4.40;99.90;;;;;;5058206;28;20210;-79
2022/12/08 03:52:40;;;;;;;21.07;14.53;;;4.40;99.90;;;;;;5075685;28;20175;-78
2022/12/08 03:55:07;;;;;;;21.90;14.73;;;4.40;99.90;;;;;;5057439;28;20209;-78
2022/12/08 03:57:32;;;;;;;25.60;15.07;;;4.40;99.90;;;;;;5058419;28;20286;-78
2022/12/08 03:59:58;;;;;;;19.63;13.53;;;4.40;99.90;;;;;;5058187;28;20202;-78
2022/12/08 04:02:23;;;;;;;18.67;13.33;;;4.50;99.90;;;;;;5058169;28;20629;-78
2022/12/08 04:04:49;;;;;;;18.97;13.07;;;4.40;99.90;;;;;;5075652;28;20517;-78
2022/12/08 04:07:14;;;;;;;18.53;12.43;;;4.40;99.90;;;;;;5057493;28;20618;-78
2022/12/08 04:09:40;;;;;;;16.90;12.17;;;4.40;99.90;;;;;;5075829;28;20258;-78
2022/12/08 04:12:09;;;;;;;17.27;12.57;;;4.40;99.90;;;;;;5057718;28;20177;-78
2022/12/08 04:14:35;;;;;;;18.97;11.77;;;4.40;99.90;;;;;;5075462;28;20191;-78
2022/12/08 04:17:00;;;;;;;15.23;11.73;;;4.40;99.90;;;;;;5057603;28;20744;-78
2022/12/08 04:19:26;;;;;;;18.47;11.63;;;4.40;99.90;;;;;;5075451;28;20203;-78
2022/12/08 04:21:51;;;;;;;18.33;12.70;;;4.40;99.90;;;;;;5075731;28;20198;-78
2022/12/08 04:24:17;;;;;;;16.10;11.57;;;4.40;99.90;;;;;;5075853;28;20182;-78
2022/12/08 04:26:42;;;;;;;18.17;11.57;;;4.50;99.90;;;;;;5057166;28;20233;-78
2022/12/08 04:29:08;;;;;;;18.90;11.77;;;4.40;99.90;;;;;;5057364;28;20220;-78
2022/12/08 04:31:33;;;;;;;14.10;10.70;;;4.50;99.90;;;;;;5057386;28;20202;-78
2022/12/08 04:33:59;;;;;;;13.23;11.03;;;4.40;99.90;;;;;;5075154;28;20604;-78
2022/12/08 04:36:24;;;;;;;17.70;11.73;;;4.50;99.90;;;;;;5075151;28;20237;-78
2022/12/08 04:38:50;;;;;;;16.97;11.83;;;4.40;99.90;;;;;;5075010;28;20195;-78
2022/12/08 04:41:15;;;;;;;15.17;11.77;;;4.40;99.90;;;;;;5074884;28;20175;-78
2022/12/08 04:43:43;;;;;;;15.70;11.30;;;4.40;99.90;;;;;;5057605;28;20171;-78
2022/12/08 04:46:09;;;;;;;18.27;12.40;;;4.40;99.90;;;;;;5057042;28;20175;-78
2022/12/08 04:48:37;;;;;;;15.67;11.63;;;4.40;99.90;;;;;;5074734;28;20278;-79
2022/12/08 04:51:03;;;;;;;21.53;13.67;;;4.40;99.90;;;;;;5075197;28;20166;-79
2022/12/08 04:53:29;;;;;;;17.33;12.63;;;4.40;99.90;;;;;;5056967;28;20179;-78
2022/12/08 04:55:54;;;;;;;17.10;12.57;;;4.40;99.90;;;;;;5075068;28;20186;-79
2022/12/08 04:58:20;;;;;;;16.60;12.67;;;4.40;99.90;;;;;;5057288;28;20191;-78
2022/12/08 05:00:46;;;;;;;19.37;13.33;;;4.40;99.90;;;;;;5074605;28;20171;-77
2022/12/08 05:03:13;;;;;;;20.23;13.03;;;4.40;99.90;;;;;;5074503;28;20163;-77
2022/12/08 05:05:39;;;;;;;18.60;13.23;;;4.40;99.90;;;;;;5074929;28;20171;-78
2022/12/08 05:08:05;;;;;;;22.03;12.97;;;4.40;99.90;;;;;;5074476;28;20221;-78
2022/12/08 05:10:31;;;;;;;17.07;12.17;;;4.40;99.90;;;;;;5056675;28;20219;-78
2022/12/08 05:12:58;;;;;;;20.63;12.70;;;4.40;99.90;;;;;;5074880;28;20174;-78
2022/12/08 05:15:23;;;;;;;15.93;12.87;;;4.50;99.90;;;;;;5074684;28;20186;-78
2022/12/08 05:17:49;;;;;;;17.87;12.30;;;4.50;99.90;;;;;;5074346;28;20198;-79
2022/12/08 05:20:15;;;;;;;16.50;12.30;;;4.50;99.90;;;;;;5056529;28;20170;-78
2022/12/08 05:22:41;;;;;;;19.40;12.30;;;4.50;99.90;;;;;;5074257;28;20175;-78
2022/12/08 05:25:06;;;;;;;16.60;11.87;;;4.50;99.90;;;;;;5075267;28;20256;-79
2022/12/08 05:27:32;;;;;;;17.60;12.17;;;4.50;99.90;;;;;;5074189;28;20277;-78
2022/12/08 05:29:58;;;;;;;16.73;11.87;;;4.50;99.90;;;;;;5073813;28;20650;-77
2022/12/08 05:32:23;;;;;;;18.80;13.63;;;4.50;99.90;;;;;;5073751;28;20552;-77
2022/12/08 05:34:49;;;;;;;19.83;13.47;;;4.50;99.90;;;;;;5073301;28;20203;-77
2022/12/08 05:37:14;;;;;;;20.53;12.87;;;4.60;99.90;;;;;;5055030;28;20230;-76
2022/12/08 05:39:40;;;;;;;16.23;11.80;;;4.60;99.90;;;;;;5072981;28;20216;-77
2022/12/08 05:42:05;;;;;;;17.80;12.53;;;4.60;99.90;;;;;;5073457;28;20163;-77
2022/12/08 05:44:31;;;;;;;17.17;12.50;;;4.60;99.90;;;;;;5073494;28;20171;-77
2022/12/08 05:46:56;;;;;;;19.87;13.57;;;4.50;99.90;;;;;;5073281;28;20198;-77
2022/12/08 05:49:22;;;;;;;18.63;13.33;;;4.60;99.90;;;;;;5073526;28;20178;-77
2022/12/08 05:51:47;;;;;;;19.37;13.43;;;4.60;99.90;;;;;;5055060;28;20190;-76
2022/12/08 05:54:13;;;;;;;19.33;13.47;;;4.50;99.90;;;;;;5057952;28;20177;-77
2022/12/08 05:56:38;;;;;;;17.43;12.70;;;4.60;99.90;;;;;;5077019;28;20667;-78
2022/12/08 05:59:07;;;;;;;18.93;12.87;;;4.50;99.90;;;;;;5059685;28;20171;-77
2022/12/08 06:01:33;;;;;;;21.77;14.50;;;4.50;99.90;;;;;;5058891;28;20173;-77
2022/12/08 06:04:00;;;;;;;16.13;12.63;;;4.50;99.90;;;;;;5058857;28;20171;-77
2022/12/08 06:06:26;;;;;;;17.87;12.90;;;4.50;99.90;;;;;;5077062;28;20175;-77
2022/12/08 06:08:52;;;;;;;22.97;13.70;;;4.50;99.90;;;;;;5076863;28;20182;-77
2022/12/08 06:11:26;;;;;;;21.43;14.27;;;4.50;99.90;;;;;;5076972;28;20167;-77
2022/12/08 06:13:52;;;;;;;26.10;14.87;;;4.50;99.90;;;;;;5058932;28;20158;-76
2022/12/08 06:16:18;;;;;;;24.20;14.13;;;4.50;99.90;;;;;;5076604;28;20681;-77
2022/12/08 06:18:44;;;;;;;23.03;14.73;;;4.50;99.90;;;;;;5076427;28;20175;-77
2022/12/08 06:21:11;;;;;;;25.17;14.70;;;4.50;99.90;;;;;;5076469;28;20217;-77
2022/12/08 06:23:37;;;;;;;20.97;14.73;;;4.50;99.90;;;;;;5076197;28;20171;-76
2022/12/08 06:26:14;;;;;;;21.80;14.90;;;4.50;99.90;;;;;;5059089;28;20171;-77
2022/12/08 06:28:41;;;;;;;21.43;13.63;;;4.50;99.90;;;;;;5076359;28;20209;-77
2022/12/08 06:31:15;;;;;;;23.73;14.90;;;4.50;99.90;;;;;;5058867;28;20179;-78
2022/12/08 06:33:41;;;;;;;18.37;13.47;;;4.50;99.90;;;;;;5077293;28;20162;-77
2022/12/08 06:36:07;;;;;;;18.10;13.00;;;4.50;99.90;;;;;;5076769;28;20552;-77
2022/12/08 06:38:32;;;;;;;22.70;14.10;;;4.50;99.90;;;;;;5076840;28;20584;-77
2022/12/08 06:40:58;;;;;;;20.60;14.47;;;4.40;99.90;;;;;;5076533;28;20162;-77
2022/12/08 06:43:25;;;;;;;20.90;13.57;;;4.40;99.90;;;;;;5058887;28;20174;-77
2022/12/08 06:45:50;;;;;;;17.83;12.47;;;4.40;99.90;;;;;;5059401;28;20531;-77
2022/12/08 06:48:17;;;;;;;24.47;14.10;;;4.40;99.90;;;;;;5059820;28;20195;-78
2022/12/08 06:50:43;;;;;;;20.13;14.40;;;4.40;99.90;;;;;;5059458;28;20174;-77
2022/12/08 06:53:11;;;;;;;25.07;14.53;;;4.40;99.90;;;;;;5058601;28;20194;-77
2022/12/08 06:55:41;;;;;;;21.63;15.03;;;4.40;99.90;;;;;;5076450;28;20611;-77
2022/12/08 06:58:07;;;;;;;17.87;12.73;;;4.40;99.90;;;;;;5076675;28;20206;-77
2022/12/08 07:00:32;;;;;;;15.37;11.90;;;4.40;99.90;;;;;;5076729;28;20637;-77
2022/12/08 07:02:58;;;;;;;20.37;12.00;;;4.30;99.90;;;;;;5076213;28;20163;-77
2022/12/08 07:05:23;;;;;;;15.47;11.37;;;4.30;99.90;;;;;;5058082;28;20171;-78
2022/12/08 07:07:49;;;;;;;17.97;11.93;;;4.30;99.90;;;;;;5058193;28;20190;-78
2022/12/08 07:10:14;;;;;;;15.10;11.20;;;4.30;99.90;;;;;;5058639;28;20665;-78
2022/12/08 07:12:40;;;;;;;18.97;11.67;;;4.30;99.90;;;;;;5076476;28;20174;-77
2022/12/08 07:15:06;;;;;;;15.77;11.20;;;4.40;99.90;;;;;;5076365;28;20227;-77
2022/12/08 07:17:32;;;;;;;15.20;10.93;;;4.30;99.90;;;;;;5075956;28;20187;-78
2022/12/08 07:19:57;;;;;;;18.53;11.63;;;4.30;99.90;;;;;;5076131;28;20186;-77
2022/12/08 07:22:23;;;;;;;16.90;12.23;;;4.30;99.90;;;;;;5076355;28;20171;-78
2022/12/08 07:24:48;;;;;;;18.57;12.17;;;4.30;99.90;;;;;;5075825;28;20220;-77
2022/12/08 07:27:14;;;;;;;16.57;12.20;;;4.30;99.90;;;;;;5075767;28;20195;-78
2022/12/08 07:29:39;;;;;;;19.33;11.93;;;4.20;99.90;;;;;;5058090;28;20246;-78
2022/12/08 07:32:06;;;;;;;13.53;10.60;;;4.20;99.90;;;;;;5081597;28;20645;-77
2022/12/08 07:34:32;;;;;;;17.80;12.07;;;4.20;99.90;;;;;;5062019;28;20212;-76
2022/12/08 07:36:57;;;;;;;15.47;10.40;;;4.20;99.90;;;;;;5082318;28;20206;-77
2022/12/08 07:39:23;;;;;;;13.20;9.60;;;4.20;99.90;;;;;;5080993;28;20175;-78
2022/12/08 07:41:49;;;;;;;12.47;9.63;;;4.20;99.90;;;;;;5061902;28;20170;-79
2022/12/08 07:44:15;;;;;;;11.10;8.90;;;4.10;99.90;;;;;;5062080;28;20178;-78
2022/12/08 07:46:40;;;;;;;10.93;9.27;;;4.10;99.90;;;;;;5081260;28;20225;-79
2022/12/08 07:49:06;;;;;;;14.47;9.60;;;4.00;99.90;;;;;;5081565;28;20254;-78
2022/12/08 07:51:31;;;;;;;11.47;8.97;;;4.10;99.90;;;;;;5080078;28;20221;-78
2022/12/08 07:53:57;;;;;;;14.43;10.07;;;4.00;99.90;;;;;;5062815;28;20236;-78
2022/12/08 07:56:22;;;;;;;13.90;10.03;;;4.00;99.90;;;;;;5061839;28;20589;-79
2022/12/08 07:58:48;;;;;;;14.33;8.97;;;4.10;99.90;;;;;;5082667;28;20256;-78
2022/12/08 08:01:29;;;;;;;12.00;9.53;;;4.00;99.90;;;;;;5081867;28;20171;-78
2022/12/08 08:03:57;;;;;;;14.33;9.77;;;4.00;99.90;;;;;;5063008;28;20225;-79
2022/12/08 08:06:22;;;;;;;13.97;9.47;;;4.00;99.90;;;;;;5081043;28;20214;-78
2022/12/08 08:08:48;;;;;;;12.00;9.43;;;4.00;99.90;;;;;;5081779;28;20175;-78
2022/12/08 08:11:14;;;;;;;13.77;9.77;;;4.00;99.90;;;;;;5062734;28;20229;-79
2022/12/08 08:13:40;;;;;;;10.70;8.77;;;4.00;99.90;;;;;;5079855;28;20175;-79
2022/12/08 08:16:08;;;;;;;12.83;9.33;;;4.00;99.90;;;;;;5080598;28;20199;-79
2022/12/08 08:18:34;;;;;;;15.53;10.17;;;4.00;99.90;;;;;;5063573;28;20237;-78
2022/12/08 08:21:00;;;;;;;16.70;10.80;;;4.00;99.90;;;;;;5081605;28;20190;-77
2022/12/08 08:23:26;;;;;;;14.93;10.00;;;4.00;99.90;;;;;;5061890;28;20619;-79
2022/12/08 08:25:51;;;;;;;15.50;10.23;;;4.00;99.90;;;;;;5080362;28;20567;-79
2022/12/08 08:28:17;;;;;;;13.17;8.90;;;4.00;99.90;;;;;;5062823;28;20195;-77
2022/12/08 08:30:44;;;;;;;13.23;9.43;;;4.00;99.90;;;;;;5080747;28;20171;-79
2022/12/08 08:33:10;;;;;;;13.37;9.47;;;3.90;99.90;;;;;;5081111;28;20178;-78
2022/12/08 08:35:36;;;;;;;12.37;9.17;;;3.90;99.90;;;;;;5061090;28;20195;-79
2022/12/08 08:38:01;;;;;;;15.47;10.03;;;3.90;99.90;;;;;;5061195;28;20214;-78
2022/12/08 08:40:27;;;;;;;13.37;9.13;;;3.90;99.90;;;;;;5079810;28;20541;-78
2022/12/08 08:42:52;;;;;;;15.20;10.60;;;3.90;99.90;;;;;;5076036;28;20183;-76
2022/12/08 08:45:18;;;;;;;13.17;9.70;;;3.90;99.90;;;;;;5058714;28;20179;-78
2022/12/08 08:47:43;;;;;;;17.73;11.03;;;3.90;99.90;;;;;;5079366;28;20201;-78
2022/12/08 08:50:09;;;;;;;17.53;11.77;;;3.90;99.90;;;;;;5078937;28;20690;-78
2022/12/08 08:52:34;;;;;;;18.43;11.73;;;3.90;99.90;;;;;;5061251;28;20189;-78
2022/12/08 08:55:00;;;;;;;17.97;12.17;;;3.90;99.90;;;;;;5078879;28;20228;-79
2022/12/08 08:57:26;;;;;;;20.80;12.63;;;3.90;99.90;;;;;;5061345;28;20191;-79
2022/12/08 08:59:51;;;;;;;24.97;13.00;;;3.90;99.90;;;;;;5080061;28;20179;-78
2022/12/08 09:02:18;;;;;;;19.33;13.43;;;3.90;99.90;;;;;;5061436;28;20175;-78
2022/12/08 09:04:44;;;;;;;18.53;12.63;;;3.90;99.90;;;;;;5080019;28;20186;-79
2022/12/08 09:07:09;;;;;;;19.20;12.93;;;3.90;99.90;;;;;;5063173;28;20199;-78
2022/12/08 09:09:36;;;;;;;17.33;12.93;;;3.90;99.90;;;;;;5061608;28;20208;-79
2022/12/08 09:12:02;;;;;;;21.77;13.43;;;3.90;99.90;;;;;;5061492;28;20205;-77
2022/12/08 09:14:27;;;;;;;21.00;13.50;;;4.00;99.90;;;;;;5061889;28;20594;-78
2022/12/08 09:16:53;;;;;;;18.50;13.40;;;4.00;99.90;;;;;;5079371;28;20654;-78
2022/12/08 09:19:18;;;;;;;21.97;14.10;;;4.00;99.90;;;;;;5079332;28;20179;-78
2022/12/08 09:21:44;;;;;;;24.77;14.83;;;4.00;99.90;;;;;;5079188;28;20257;-79
2022/12/08 09:24:14;;;;;;;25.87;14.83;;;4.00;99.90;;;;;;5079598;28;20220;-78
2022/12/08 09:26:41;;;;;;;25.63;15.57;;;4.10;99.90;;;;;;5060709;28;20286;-79
2022/12/08 09:29:07;;;;;;;25.10;14.77;;;4.10;99.90;;;;;;5080027;28;20584;-78
2022/12/08 09:31:32;;;;;;;25.83;16.53;;;4.10;99.90;;;;;;5061274;28;20205;-78
2022/12/08 09:33:58;;;;;;;22.80;15.67;;;4.10;99.90;;;;;;5079754;28;20668;-79
2022/12/08 09:36:24;;;;;;;23.30;15.17;;;4.10;99.90;;;;;;5060805;28;20211;-79
2022/12/08 09:38:52;;;;;;;24.47;15.67;;;4.10;99.90;;;;;;5079806;28;20206;-79
2022/12/08 09:41:44;;;;;;;23.77;14.80;;;4.10;99.90;;;;;;5061513;28;20174;-78
2022/12/08 09:44:44;;;;;;;22.33;14.07;;;4.10;99.90;;;;;;5062059;28;20178;-78
2022/12/08 09:47:40;;;;;;;26.30;15.33;;;4.10;99.90;;;;;;5038219;28;20682;-78
2022/12/08 09:50:31;;;;;;;26.47;14.97;;;4.10;99.90;;;;;;5078706;28;20658;-78
2022/12/08 09:53:17;;;;;;;24.43;15.63;;;4.10;99.90;;;;;;5079450;28;20151;-78
2022/12/08 09:55:52;;;;;;;26.87;14.60;;;4.10;99.90;;;;;;5072250;28;20214;-77
2022/12/08 09:58:44;;;;;;;26.43;15.43;;;4.10;99.90;;;;;;5073401;28;20257;-77
2022/12/08 10:01:10;;;;;;;22.13;14.03;;;4.10;99.90;;;;;;5073535;28;20619;-78
2022/12/08 10:03:36;;;;;;;22.03;14.37;;;4.10;99.90;;;;;;5073898;28;20167;-78
2022/12/08 10:06:13;;;;;;;25.67;14.27;;;4.10;99.90;;;;;;5073727;28;20177;-78
2022/12/08 10:08:46;;;;;;;23.63;14.40;;;4.00;99.90;;;;;;5073398;28;20216;-77
2022/12/08 10:11:23;;;;;;;23.00;14.07;;;4.10;99.90;;;;;;5073191;28;20167;-77
2022/12/08 10:14:19;;;;;;;24.33;14.20;;;4.10;99.90;;;;;;5055192;28;20169;-77
2022/12/08 10:16:48;;;;;;;20.73;14.13;;;4.00;99.90;;;;;;5055039;28;20209;-78
2022/12/08 10:19:25;;;;;;;21.40;14.20;;;4.10;99.90;;;;;;5054926;28;20167;-78
2022/12/08 10:21:53;;;;;;;21.87;14.30;;;4.00;99.90;;;;;;5054967;28;20171;-77
2022/12/08 10:24:32;;;;;;;21.80;13.53;;;4.00;99.90;;;;;;5073061;28;20176;-77
2022/12/08 10:26:58;;;;;;;22.10;13.93;;;4.00;99.90;;;;;;5073191;28;20672;-78
2022/12/08 10:29:24;;;;;;;22.70;14.00;;;4.00;99.90;;;;;;5054783;28;20221;-77
2022/12/08 10:31:49;;;;;;;20.20;13.57;;;4.00;99.90;;;;;;5073694;28;20653;-78
2022/12/08 10:34:18;;;;;;;22.77;15.33;;;4.00;99.90;;;;;;5055455;28;20171;-78
2022/12/08 10:36:54;;;;;;;19.93;14.53;;;4.10;99.90;;;;;;5073327;28;20213;-78
2022/12/08 10:39:36;;;;;;;24.47;14.53;;;4.10;99.90;;;;;;5076165;28;20147;-79
2022/12/08 10:42:07;;;;;;;20.57;14.33;;;4.10;99.90;;;;;;5062935;28;20175;-79
2022/12/08 10:44:37;;;;;;;20.43;14.80;;;4.10;99.90;;;;;;5062855;28;20175;-79
2022/12/08 10:47:11;;;;;;;22.10;15.43;;;4.10;99.90;;;;;;5082298;28;20278;-79
2022/12/08 10:49:37;;;;;;;22.83;14.70;;;4.20;99.90;;;;;;5081016;28;20151;-79
2022/12/08 10:52:08;;;;;;;24.13;14.90;;;4.20;99.90;;;;;;5080475;28;20308;-79
2022/12/08 10:54:37;;;;;;;23.07;16.33;;;4.20;99.90;;;;;;5080629;28;20164;-79
2022/12/08 10:57:02;;;;;;;22.90;14.67;;;4.20;99.90;;;;;;5079790;28;20190;-78
2022/12/08 10:59:28;;;;;;;23.03;16.17;;;4.20;99.90;;;;;;5080953;28;20171;-79
2022/12/08 11:01:55;;;;;;;21.13;14.40;;;4.20;99.90;;;;;;5061910;28;20174;-79
2022/12/08 11:04:32;;;;;;;28.90;15.30;;;4.20;99.90;;;;;;5062245;28;20224;-79
2022/12/08 11:06:58;;;;;;;23.30;14.10;;;4.30;99.90;;;;;;5080297;28;20186;-79
2022/12/08 11:09:35;;;;;;;21.90;13.43;;;4.30;99.90;;;;;;5080392;28;20163;-79
2022/12/08 11:12:21;;;;;;;21.03;14.73;;;4.30;99.90;;;;;;5063555;28;20216;-79
2022/12/08 11:14:59;;;;;;;23.27;15.37;;;4.30;99.90;;;;;;5080191;28;20257;-79
2022/12/08 11:17:28;;;;;;;24.03;15.37;;;4.30;99.90;;;;;;5081506;28;20186;-78
2022/12/08 11:19:55;;;;;;;23.67;14.20;;;4.30;99.90;;;;;;5063098;28;20176;-79
2022/12/08 11:22:22;;;;;;;23.17;14.67;;;4.30;99.90;;;;;;5063186;28;20183;-78
2022/12/08 11:25:06;;;;;;;23.40;14.23;;;4.40;99.90;;;;;;5081759;28;20198;-79
2022/12/08 11:27:35;;;;;;;20.30;13.70;;;4.40;99.90;;;;;;5080958;28;20252;-79
2022/12/08 11:30:02;;;;;;;19.40;13.60;;;4.30;99.90;;;;;;5063519;28;20190;-78
2022/12/08 11:32:28;;;;;;;22.67;14.83;;;4.30;99.90;;;;;;5081985;28;20203;-78
2022/12/08 11:35:05;;;;;;;28.30;13.27;;;4.30;99.90;;;;;;5080628;28;20610;-78
2022/12/08 11:37:39;;;;;;;25.80;12.93;;;4.30;99.90;;;;;;5080940;28;20210;-79
2022/12/08 11:40:13;;;;;;;22.73;14.43;;;4.40;99.90;;;;;;5061047;28;20178;-79
2022/12/08 11:42:51;;;;;;;22.43;13.73;;;4.30;99.90;;;;;;5063491;28;20178;-79
2022/12/08 11:45:28;;;;;;;21.90;12.87;;;4.30;99.90;;;;;;5083122;28;20170;-77
2022/12/08 11:48:04;;;;;;;20.30;13.90;;;4.40;99.90;;;;;;5063820;28;20255;-79
2022/12/08 11:50:59;;;;;;;27.20;13.17;;;4.40;99.90;;;;;;5081861;28;20223;-79
2022/12/08 11:53:59;;;;;;;18.27;13.37;;;4.40;99.90;;;;;;5071413;28;20248;-78
2022/12/08 11:56:32;;;;;;;20.60;13.83;;;4.40;99.90;;;;;;5080217;28;20658;-78
2022/12/08 11:59:15;;;;;;;20.93;13.60;;;4.40;99.90;;;;;;5063030;28;20171;-79
2022/12/08 12:01:41;;;;;;;25.10;15.07;;;4.40;99.90;;;;;;5062482;28;20175;-79
2022/12/08 12:04:25;;;;;;;24.53;14.43;;;4.40;99.90;;;;;;5080697;28;20171;-78
2022/12/08 12:07:23;;;;;;;23.30;15.27;;;4.40;99.90;;;;;;5062137;28;20289;-79
2022/12/08 12:10:23;;;;;;;21.57;14.27;;;4.40;99.90;;;;;;5079521;28;20165;-78
2022/12/08 12:13:13;;;;;;;22.80;14.17;;;4.40;99.90;;;;;;5048328;28;20244;-79
2022/12/08 12:16:16;;;;;;;22.43;14.63;;;4.40;99.90;;;;;;5080314;28;20182;-79
2022/12/08 12:18:48;;;;;;;19.90;13.87;;;4.40;99.90;;;;;;5080000;28;20185;-78
2022/12/08 12:21:20;;;;;;;22.83;15.60;;;4.40;99.90;;;;;;5080373;28;20637;-78
2022/12/08 12:23:54;;;;;;;21.20;14.13;;;4.40;99.90;;;;;;5080069;28;20166;-78
2022/12/08 12:26:29;;;;;;;26.53;14.90;;;4.40;99.90;;;;;;5062265;28;20261;-78
2022/12/08 12:29:13;;;;;;;22.83;14.40;;;4.40;99.90;;;;;;5079703;28;20163;-77
2022/12/08 12:31:42;;;;;;;21.13;13.67;;;4.40;99.90;;;;;;5079398;28;20314;-78
2022/12/08 12:34:19;;;;;;;21.93;14.03;;;4.30;99.90;;;;;;5079622;28;20178;-78
2022/12/08 12:36:57;;;;;;;18.90;13.90;;;4.30;99.90;;;;;;5079312;28;20214;-77
2022/12/08 12:39:29;;;;;;;20.13;13.10;;;4.40;99.90;;;;;;5078767;28;20259;-77
2022/12/08 12:41:58;;;;;;;21.70;14.73;;;4.40;99.90;;;;;;5078277;28;20602;-78
2022/12/08 12:44:43;;;;;;;23.10;14.60;;;4.30;99.90;;;;;;5059483;28;20179;-77
2022/12/08 12:47:33;;;;;;;21.63;13.90;;;4.30;99.90;;;;;;5077596;28;20242;-77
2022/12/08 12:50:06;;;;;;;18.00;13.50;;;4.40;99.90;;;;;;5059229;28;20202;-78
2022/12/08 12:52:32;;;;;;;24.17;13.40;;;4.30;99.90;;;;;;5078813;28;20230;-78
2022/12/08 12:54:57;;;;;;;25.23;14.43;;;4.30;99.90;;;;;;5078733;28;20229;-78
2022/12/08 12:57:34;;;;;;;22.83;12.87;;;4.30;99.90;;;;;;5078991;28;20562;-77
2022/12/08 12:59:59;;;;;;;16.87;11.47;;;4.30;99.90;;;;;;5077461;28;20246;-78